createdAt,value
2019-05-13T00:00:13.968Z,78.89
2019-05-13T00:01:14.308Z,80.51
2019-05-13T00:02:13.323Z,80.75
2019-05-13T00:03:13.594Z,80.65
2019-05-13T00:04:13.937Z,80.51
2019-05-13T00:05:14.429Z,80.33
2019-05-13T00:06:13.432Z,80.02
2019-05-13T00:07:13.448Z,80.85
2019-05-13T00:08:13.724Z,80.23
2019-05-13T00:09:13.957Z,79.92
2019-05-13T00:10:14.360Z,80.06
2019-05-13T00:11:13.621Z,80.89
2019-05-13T00:12:13.734Z,81.20
2019-05-13T00:13:11.693Z,80.44
2019-05-13T00:14:13.445Z,80.99
2019-05-13T00:15:13.781Z,80.37
2019-05-13T00:16:13.950Z,79.24
2019-05-13T00:17:11.647Z,78.41
2019-05-13T00:18:14.158Z,79.55
2019-05-13T00:19:11.626Z,80.16
2019-05-13T00:20:13.861Z,80.89
2019-05-13T00:21:13.879Z,79.65
2019-05-13T00:22:13.904Z,81.04
2019-05-13T00:23:12.047Z,81.35
2019-05-13T00:24:13.704Z,80.93
2019-05-13T00:25:14.261Z,81.35
2019-05-13T00:26:13.962Z,81.45
2019-05-13T00:27:11.540Z,81.35
2019-05-13T00:28:11.541Z,82.07
2019-05-13T00:29:11.529Z,82.70
2019-05-13T00:30:11.519Z,82.90
2019-05-13T00:31:13.698Z,82.11
2019-05-13T00:32:13.487Z,83.01
2019-05-13T00:33:13.779Z,82.32
2019-05-13T00:34:14.163Z,82.59
2019-05-13T00:35:11.459Z,82.28
2019-05-13T00:36:11.444Z,83.53
2019-05-13T00:37:11.871Z,83.04
2019-05-13T00:38:11.424Z,82.94
2019-05-13T00:39:11.408Z,83.04
2019-05-13T00:40:14.113Z,83.04
2019-05-13T00:41:11.384Z,83.25
2019-05-13T00:42:11.373Z,83.56
2019-05-13T00:43:11.361Z,83.77
2019-05-13T00:44:11.355Z,83.67
2019-05-13T00:45:11.355Z,83.46
2019-05-13T00:46:11.332Z,84.29
2019-05-13T00:47:13.242Z,83.18
2019-05-13T00:48:11.307Z,83.50
2019-05-13T00:49:13.318Z,83.29
2019-05-13T00:50:11.302Z,82.87
2019-05-13T00:51:11.273Z,83.18
2019-05-13T00:52:11.264Z,83.50
2019-05-13T00:53:13.279Z,84.33
2019-05-13T00:54:13.225Z,84.22
2019-05-13T00:55:11.242Z,84.74
2019-05-13T00:56:13.228Z,84.84
2019-05-13T00:57:13.250Z,85.05
2019-05-13T00:58:13.711Z,84.33
2019-05-13T00:59:11.190Z,84.22
2019-05-13T01:00:11.197Z,83.70
2019-05-13T01:01:11.187Z,83.50
2019-05-13T01:02:11.158Z,83.84
2019-05-13T01:03:11.148Z,83.12
2019-05-13T01:04:11.144Z,83.22
2019-05-13T01:05:11.154Z,84.05
2019-05-13T01:06:13.231Z,84.37
2019-05-13T01:07:22.854Z,85.20
2019-05-13T01:08:14.288Z,84.99
2019-05-13T01:09:11.087Z,85.30
2019-05-13T01:10:13.214Z,85.20
2019-05-13T01:11:13.218Z,85.20
2019-05-13T01:12:13.272Z,84.89
2019-05-13T01:13:13.109Z,84.89
2019-05-13T01:14:11.038Z,85.13
2019-05-13T01:15:13.272Z,85.65
2019-05-13T01:16:11.010Z,85.55
2019-05-13T01:17:11.027Z,85.30
2019-05-13T01:18:10.989Z,85.03
2019-05-13T01:19:11.023Z,85.03
2019-05-13T01:20:10.966Z,84.61
2019-05-13T01:21:13.145Z,85.24
2019-05-13T01:22:13.347Z,85.24
2019-05-13T01:23:10.934Z,85.34
2019-05-13T01:24:10.922Z,85.03
2019-05-13T01:25:10.927Z,85.55
2019-05-13T01:26:10.906Z,85.03
2019-05-13T01:27:10.892Z,85.90
2019-05-13T01:28:10.879Z,86.17
2019-05-13T01:29:13.306Z,85.90
2019-05-13T01:30:13.200Z,85.90
2019-05-13T01:31:13.122Z,86.73
2019-05-13T01:32:10.855Z,86.73
2019-05-13T01:33:10.839Z,85.69
2019-05-13T01:34:10.818Z,86.32
2019-05-13T01:35:10.822Z,86.73
2019-05-13T01:36:13.250Z,86.42
2019-05-13T01:37:13.167Z,86.83
2019-05-13T01:38:10.777Z,86.52
2019-05-13T01:39:10.776Z,86.35
2019-05-13T01:40:10.754Z,85.73
2019-05-13T01:41:10.741Z,86.57
2019-05-13T01:42:10.735Z,85.42
2019-05-13T01:43:10.722Z,84.65
2019-05-13T01:44:10.722Z,84.27
2019-05-13T01:45:10.704Z,84.48
2019-05-13T01:46:10.688Z,84.06
2019-05-13T01:47:10.708Z,84.27
2019-05-13T01:48:10.688Z,85.00
2019-05-13T01:49:10.660Z,85.00
2019-05-13T01:50:10.653Z,84.90
2019-05-13T01:51:10.640Z,84.90
2019-05-13T01:52:10.635Z,85.21
2019-05-13T01:53:10.644Z,85.31
2019-05-13T01:54:10.604Z,85.11
2019-05-13T01:55:10.591Z,85.52
2019-05-13T01:56:10.589Z,84.38
2019-05-13T01:57:10.579Z,85.25
2019-05-13T01:58:10.562Z,85.25
2019-05-13T01:59:10.565Z,85.31
2019-05-13T02:00:10.538Z,84.94
2019-05-13T02:01:10.527Z,85.35
2019-05-13T02:02:10.523Z,85.25
2019-05-13T02:03:10.506Z,85.46
2019-05-13T02:04:10.507Z,85.25
2019-05-13T02:05:10.498Z,86.91
2019-05-13T02:06:10.473Z,87.54
2019-05-13T02:07:10.464Z,88.37
2019-05-13T02:08:10.454Z,87.23
2019-05-13T02:09:10.443Z,87.54
2019-05-13T02:10:10.446Z,87.85
2019-05-13T02:11:10.434Z,88.48
2019-05-13T02:12:10.412Z,87.23
2019-05-13T02:13:10.401Z,87.75
2019-05-13T02:14:10.400Z,87.02
2019-05-13T02:15:10.416Z,87.75
2019-05-13T02:16:10.370Z,86.60
2019-05-13T02:17:10.360Z,87.02
2019-05-13T02:18:10.351Z,86.91
2019-05-13T02:19:10.340Z,87.23
2019-05-13T02:20:10.335Z,87.65
2019-05-13T02:21:10.336Z,87.65
2019-05-13T02:22:10.337Z,87.58
2019-05-13T02:23:10.295Z,87.58
2019-05-13T02:24:10.288Z,87.68
2019-05-13T02:25:10.272Z,87.37
2019-05-13T02:26:10.270Z,88.62
2019-05-13T02:27:10.253Z,88.73
2019-05-13T02:28:10.766Z,88.37
2019-05-13T02:29:10.236Z,88.93
2019-05-13T02:30:10.228Z,87.33
2019-05-13T02:31:13.798Z,87.75
2019-05-13T02:32:13.602Z,87.37
2019-05-13T02:33:12.917Z,87.58
2019-05-13T02:34:13.376Z,86.85
2019-05-13T02:35:13.517Z,87.58
2019-05-13T02:36:13.223Z,87.58
2019-05-13T02:37:12.886Z,87.79
2019-05-13T02:38:19.857Z,87.52
2019-05-13T02:39:12.930Z,87.20
2019-05-13T02:40:13.150Z,87.58
2019-05-13T02:41:13.149Z,87.93
2019-05-13T02:42:12.969Z,87.41
2019-05-13T02:43:13.281Z,87.58
2019-05-13T02:44:12.234Z,87.37
2019-05-13T02:45:12.392Z,87.30
2019-05-13T02:46:12.857Z,87.10
2019-05-13T02:47:12.345Z,86.16
2019-05-13T02:48:12.628Z,86.16
2019-05-13T02:49:12.152Z,86.68
2019-05-13T02:50:12.715Z,86.68
2019-05-13T02:51:12.384Z,86.99
2019-05-13T02:52:12.987Z,87.93
2019-05-13T02:53:13.325Z,87.83
2019-05-13T02:54:12.482Z,87.93
2019-05-13T02:55:12.340Z,87.73
2019-05-13T02:56:11.648Z,87.41
2019-05-13T02:57:12.434Z,87.93
2019-05-13T02:58:12.427Z,87.83
2019-05-13T02:59:13.216Z,87.62
2019-05-13T03:00:12.899Z,87.41
2019-05-13T03:01:12.546Z,86.79
2019-05-13T03:02:12.379Z,86.99
2019-05-13T03:03:12.897Z,87.73
2019-05-13T03:04:12.846Z,87.73
2019-05-13T03:05:13.225Z,87.62
2019-05-13T03:06:13.051Z,87.87
2019-05-13T03:07:12.025Z,88.08
2019-05-13T03:08:12.805Z,88.60
2019-05-13T03:09:12.690Z,87.55
2019-05-13T03:10:13.223Z,88.39
2019-05-13T03:11:12.640Z,89.22
2019-05-13T03:12:12.932Z,89.18
2019-05-13T03:13:12.548Z,88.81
2019-05-13T03:14:12.616Z,88.81
2019-05-13T03:15:13.006Z,89.54
2019-05-13T03:16:12.826Z,88.70
2019-05-13T03:17:12.857Z,88.81
2019-05-13T03:18:13.046Z,88.70
2019-05-13T03:19:13.274Z,88.81
2019-05-13T03:20:15.853Z,88.70
2019-05-13T03:21:12.741Z,88.53
2019-05-13T03:22:13.206Z,88.60
2019-05-13T03:23:13.053Z,88.64
2019-05-13T03:24:13.107Z,88.01
2019-05-13T03:25:12.870Z,87.66
2019-05-13T03:26:12.680Z,87.70
2019-05-13T03:27:12.503Z,88.01
2019-05-13T03:28:13.189Z,88.64
2019-05-13T03:29:12.298Z,88.85
2019-05-13T03:30:15.410Z,89.37
2019-05-13T03:31:15.870Z,89.37
2019-05-13T03:32:16.132Z,89.37
2019-05-13T03:33:17.645Z,89.26
2019-05-13T03:34:15.863Z,89.58
2019-05-13T03:35:15.689Z,89.26
2019-05-13T03:36:16.519Z,90.10
2019-05-13T03:37:15.502Z,89.16
2019-05-13T03:38:12.753Z,88.95
2019-05-13T03:39:12.471Z,89.31
2019-05-13T03:40:13.336Z,89.16
2019-05-13T03:41:12.203Z,89.10
2019-05-13T03:42:12.234Z,89.26
2019-05-13T03:43:12.564Z,89.37
2019-05-13T03:44:13.106Z,89.37
2019-05-13T03:45:09.413Z,89.26
2019-05-13T03:46:12.063Z,89.37
2019-05-13T03:47:12.412Z,88.64
2019-05-13T03:48:12.080Z,88.85
2019-05-13T03:49:13.304Z,88.89
2019-05-13T03:50:12.314Z,88.89
2019-05-13T03:51:12.922Z,88.78
2019-05-13T03:52:09.341Z,88.89
2019-05-13T03:53:12.119Z,88.78
2019-05-13T03:54:09.326Z,87.84
2019-05-13T03:55:09.322Z,87.84
2019-05-13T03:56:12.507Z,88.57
2019-05-13T03:57:12.395Z,88.68
2019-05-13T03:58:12.835Z,88.99
2019-05-13T03:59:09.273Z,88.26
2019-05-13T04:00:12.886Z,89.20
2019-05-13T04:01:09.252Z,89.10
2019-05-13T04:02:09.253Z,89.31
2019-05-13T04:03:09.226Z,88.89
2019-05-13T04:04:12.350Z,90.25
2019-05-13T04:05:12.987Z,90.45
2019-05-13T04:06:13.115Z,89.93
2019-05-13T04:07:09.188Z,89.20
2019-05-13T04:08:09.189Z,90.45
2019-05-13T04:09:22.200Z,89.83
2019-05-13T04:10:12.932Z,89.93
2019-05-13T04:11:12.325Z,89.41
2019-05-13T04:12:09.153Z,90.14
2019-05-13T04:13:12.237Z,89.51
2019-05-13T04:14:12.140Z,90.56
2019-05-13T04:15:12.387Z,90.25
2019-05-13T04:16:12.360Z,89.51
2019-05-13T04:17:12.334Z,89.51
2019-05-13T04:18:12.296Z,89.93
2019-05-13T04:19:12.114Z,90.03
2019-05-13T04:20:12.372Z,90.56
2019-05-13T04:21:09.032Z,90.45
2019-05-13T04:22:09.018Z,90.62
2019-05-13T04:23:09.003Z,91.04
2019-05-13T04:24:12.023Z,91.04
2019-05-13T04:25:08.996Z,91.14
2019-05-13T04:26:08.996Z,90.62
2019-05-13T04:27:08.983Z,90.93
2019-05-13T04:28:08.955Z,91.04
2019-05-13T04:29:08.973Z,90.87
2019-05-13T04:30:08.933Z,91.35
2019-05-13T04:31:08.920Z,91.04
2019-05-13T04:32:08.908Z,91.66
2019-05-13T04:33:08.896Z,91.46
2019-05-13T04:34:12.110Z,92.08
2019-05-13T04:35:12.219Z,91.87
2019-05-13T04:36:08.918Z,91.66
2019-05-13T04:37:08.855Z,91.56
2019-05-13T04:38:10.182Z,91.35
2019-05-13T04:39:12.691Z,90.72
2019-05-13T04:40:08.822Z,90.83
2019-05-13T04:41:11.114Z,91.72
2019-05-13T04:42:08.806Z,91.72
2019-05-13T04:43:08.796Z,91.00
2019-05-13T04:44:08.795Z,91.00
2019-05-13T04:45:08.783Z,90.68
2019-05-13T04:46:08.762Z,91.31
2019-05-13T04:47:12.464Z,91.31
2019-05-13T04:48:08.738Z,90.37
2019-05-13T04:49:08.721Z,90.68
2019-05-13T04:50:08.751Z,91.31
2019-05-13T04:51:08.709Z,91.37
2019-05-13T04:52:08.695Z,90.85
2019-05-13T04:53:08.684Z,90.75
2019-05-13T04:54:08.672Z,91.06
2019-05-13T04:55:08.672Z,90.85
2019-05-13T04:56:08.669Z,90.64
2019-05-13T04:57:08.641Z,91.37
2019-05-13T04:58:08.633Z,90.95
2019-05-13T04:59:08.615Z,91.16
2019-05-13T05:00:08.620Z,91.75
2019-05-13T05:01:10.445Z,92.06
2019-05-13T05:02:12.986Z,91.53
2019-05-13T05:03:08.575Z,91.12
2019-05-13T05:04:13.900Z,91.08
2019-05-13T05:05:12.752Z,90.91
2019-05-13T05:06:08.540Z,90.77
2019-05-13T05:07:08.556Z,91.18
2019-05-13T05:08:08.524Z,90.35
2019-05-13T05:09:08.510Z,90.56
2019-05-13T05:10:18.861Z,90.20
2019-05-13T05:11:13.029Z,90.52
2019-05-13T05:12:08.486Z,90.41
2019-05-13T05:13:08.482Z,89.79
2019-05-13T05:14:08.451Z,90.41
2019-05-13T05:15:08.450Z,90.06
2019-05-13T05:16:08.436Z,90.00
2019-05-13T05:17:08.438Z,89.64
2019-05-13T05:18:08.414Z,89.23
2019-05-13T05:19:08.398Z,89.23
2019-05-13T05:20:08.388Z,89.64
2019-05-13T05:21:08.396Z,90.12
2019-05-13T05:22:08.407Z,90.54
2019-05-13T05:23:08.389Z,90.60
2019-05-13T05:24:08.349Z,90.39
2019-05-13T05:25:08.341Z,90.91
2019-05-13T05:26:08.322Z,91.18
2019-05-13T05:27:08.309Z,91.28
2019-05-13T05:28:08.297Z,91.70
2019-05-13T05:29:08.326Z,91.66
2019-05-13T05:30:08.278Z,91.66
2019-05-13T05:31:08.274Z,91.14
2019-05-13T05:32:08.261Z,90.48
2019-05-13T05:33:08.273Z,91.10
2019-05-13T05:34:08.233Z,91.00
2019-05-13T05:35:08.224Z,91.27
2019-05-13T05:36:08.213Z,90.44
2019-05-13T05:37:08.205Z,90.23
2019-05-13T05:38:08.192Z,89.61
2019-05-13T05:39:08.193Z,89.98
2019-05-13T05:40:08.170Z,89.77
2019-05-13T05:41:08.175Z,90.08
2019-05-13T05:42:08.146Z,90.25
2019-05-13T05:43:08.136Z,90.04
2019-05-13T05:44:08.126Z,89.89
2019-05-13T05:45:08.116Z,89.89
2019-05-13T05:46:08.131Z,89.17
2019-05-13T05:47:08.112Z,89.54
2019-05-13T05:48:08.092Z,89.34
2019-05-13T05:49:08.070Z,88.67
2019-05-13T05:50:08.066Z,88.26
2019-05-13T05:51:08.050Z,88.57
2019-05-13T05:52:08.063Z,88.12
2019-05-13T05:53:08.026Z,88.12
2019-05-13T05:54:11.170Z,87.08
2019-05-13T05:55:11.180Z,87.04
2019-05-13T05:56:07.995Z,87.04
2019-05-13T05:57:07.981Z,87.04
2019-05-13T05:58:07.991Z,86.94
2019-05-13T05:59:07.962Z,87.04
2019-05-13T06:00:07.965Z,87.00
2019-05-13T06:01:07.941Z,86.90
2019-05-13T06:02:07.933Z,86.18
2019-05-13T06:03:07.929Z,85.62
2019-05-13T06:04:07.922Z,86.13
2019-05-13T06:05:07.907Z,84.55
2019-05-13T06:06:07.890Z,84.34
2019-05-13T06:07:07.897Z,84.65
2019-05-13T06:08:07.860Z,84.61
2019-05-13T06:09:07.868Z,84.20
2019-05-13T06:10:07.856Z,84.61
2019-05-13T06:11:07.826Z,84.61
2019-05-13T06:12:07.817Z,83.48
2019-05-13T06:13:07.882Z,83.17
2019-05-13T06:14:07.796Z,83.27
2019-05-13T06:15:07.797Z,83.06
2019-05-13T06:16:07.781Z,83.54
2019-05-13T06:17:07.765Z,83.23
2019-05-13T06:18:07.755Z,82.82
2019-05-13T06:19:07.767Z,82.92
2019-05-13T06:20:07.754Z,82.92
2019-05-13T06:21:07.728Z,82.51
2019-05-13T06:22:07.710Z,82.78
2019-05-13T06:23:07.713Z,82.71
2019-05-13T06:24:07.695Z,82.68
2019-05-13T06:25:07.695Z,82.78
2019-05-13T06:26:07.663Z,82.02
2019-05-13T06:27:07.656Z,81.71
2019-05-13T06:28:07.645Z,81.40
2019-05-13T06:29:07.633Z,80.68
2019-05-13T06:30:07.632Z,80.85
2019-05-13T06:31:07.616Z,80.85
2019-05-13T06:32:19.248Z,80.09
2019-05-13T06:33:08.590Z,79.68
2019-05-13T06:34:07.576Z,78.55
2019-05-13T06:35:07.585Z,78.55
2019-05-13T06:36:07.557Z,78.41
2019-05-13T06:37:07.545Z,78.58
2019-05-13T06:38:07.534Z,77.89
2019-05-13T06:39:07.526Z,78.27
2019-05-13T06:40:07.544Z,78.37
2019-05-13T06:41:11.469Z,77.65
2019-05-13T06:42:08.488Z,77.10
2019-05-13T06:43:07.480Z,76.90
2019-05-13T06:44:07.470Z,76.48
2019-05-13T06:45:07.463Z,76.28
2019-05-13T06:46:07.464Z,76.76
2019-05-13T06:47:07.439Z,75.63
2019-05-13T06:48:07.437Z,77.68
2019-05-13T06:49:07.413Z,76.42
2019-05-13T06:50:07.404Z,76.31
2019-05-13T06:51:07.403Z,76.89
2019-05-13T06:52:13.962Z,75.76
2019-05-13T06:53:08.499Z,75.93
2019-05-13T06:54:07.359Z,77.33
2019-05-13T06:55:07.349Z,77.54
2019-05-13T06:56:07.335Z,74.84
2019-05-13T06:57:07.327Z,74.53
2019-05-13T06:58:07.326Z,74.49
2019-05-13T06:59:07.303Z,72.92
2019-05-13T07:00:07.292Z,74.05
2019-05-13T07:01:07.284Z,73.68
2019-05-13T07:02:07.285Z,71.08
2019-05-13T07:03:07.266Z,70.54
2019-05-13T07:04:07.249Z,70.71
2019-05-13T07:05:07.243Z,68.90
2019-05-13T07:06:07.226Z,66.96
2019-05-13T07:07:13.126Z,67.27
2019-05-13T07:08:08.204Z,69.24
2019-05-13T07:09:07.195Z,68.80
2019-05-13T07:10:07.182Z,67.85
2019-05-13T07:11:17.700Z,68.66
2019-05-13T07:12:08.169Z,65.67
2019-05-13T07:13:07.147Z,66.11
2019-05-13T07:14:07.145Z,65.16
2019-05-13T07:15:07.127Z,64.68
2019-05-13T07:16:07.115Z,67.44
2019-05-13T07:17:07.119Z,66.62
2019-05-13T07:18:07.119Z,65.67
2019-05-13T07:19:07.083Z,66.59
2019-05-13T07:20:07.076Z,66.49
2019-05-13T07:21:07.069Z,64.65
2019-05-13T07:22:07.051Z,65.64
2019-05-13T07:23:07.079Z,67.27
2019-05-13T07:24:07.032Z,67.35
2019-05-13T07:25:07.022Z,65.78
2019-05-13T07:26:07.011Z,64.63
2019-05-13T07:27:07.000Z,64.09
2019-05-13T07:28:06.990Z,63.35
2019-05-13T07:29:07.605Z,61.61
2019-05-13T07:30:06.986Z,64.23
2019-05-13T07:31:06.957Z,61.18
2019-05-13T07:32:06.949Z,61.08
2019-05-13T07:33:06.935Z,63.32
2019-05-13T07:34:06.936Z,62.58
2019-05-13T07:35:06.925Z,60.92
2019-05-13T07:36:06.940Z,60.79
2019-05-13T07:37:06.889Z,59.16
2019-05-13T07:38:06.885Z,59.88
2019-05-13T07:39:06.879Z,58.53
2019-05-13T07:40:06.885Z,58.02
2019-05-13T07:41:06.853Z,60.08
2019-05-13T07:42:06.841Z,57.59
2019-05-13T07:43:06.828Z,58.09
2019-05-13T07:44:06.814Z,57.97
2019-05-13T07:45:06.821Z,57.33
2019-05-13T07:46:06.795Z,57.40
2019-05-13T07:47:06.785Z,57.50
2019-05-13T07:48:19.415Z,57.30
2019-05-13T07:49:07.762Z,54.24
2019-05-13T07:50:06.765Z,55.43
2019-05-13T07:51:06.746Z,53.50
2019-05-13T07:52:06.733Z,55.73
2019-05-13T07:53:06.723Z,52.99
2019-05-13T07:54:06.709Z,53.52
2019-05-13T07:55:06.731Z,54.24
2019-05-13T07:56:06.687Z,53.72
2019-05-13T07:57:06.678Z,52.81
2019-05-13T07:58:06.669Z,52.33
2019-05-13T07:59:06.662Z,53.85
2019-05-13T08:00:06.656Z,54.24
2019-05-13T08:01:06.654Z,53.40
2019-05-13T08:02:06.627Z,53.37
2019-05-13T08:03:06.614Z,53.34
2019-05-13T08:04:19.263Z,54.84
2019-05-13T08:05:07.595Z,54.33
2019-05-13T08:06:06.603Z,53.52
2019-05-13T08:07:06.575Z,52.01
2019-05-13T08:08:06.566Z,51.30
2019-05-13T08:09:06.553Z,52.89
2019-05-13T08:10:06.544Z,51.37
2019-05-13T08:11:06.548Z,51.25
2019-05-13T08:12:11.027Z,50.95
2019-05-13T08:13:07.509Z,51.76
2019-05-13T08:14:06.502Z,50.72
2019-05-13T08:15:06.515Z,49.69
2019-05-13T08:16:06.509Z,47.97
2019-05-13T08:17:06.470Z,49.18
2019-05-13T08:18:06.459Z,49.05
2019-05-13T08:19:06.450Z,47.82
2019-05-13T08:20:06.443Z,48.33
2019-05-13T08:21:06.430Z,48.53
2019-05-13T08:22:06.431Z,48.25
2019-05-13T08:23:06.409Z,47.47
2019-05-13T08:24:06.399Z,47.97
2019-05-13T08:25:06.413Z,48.58
2019-05-13T08:26:06.390Z,49.21
2019-05-13T08:27:06.381Z,47.99
2019-05-13T08:28:06.362Z,50.21
2019-05-13T08:29:06.351Z,48.50
2019-05-13T08:30:06.334Z,50.12
2019-05-13T08:31:06.331Z,49.18
2019-05-13T08:32:06.331Z,44.94
2019-05-13T08:33:06.306Z,46.15
2019-05-13T08:34:06.300Z,46.84
2019-05-13T08:35:08.924Z,45.61
2019-05-13T08:36:06.278Z,44.17
2019-05-13T08:37:06.278Z,42.66
2019-05-13T08:38:06.255Z,43.87
2019-05-13T08:39:06.270Z,43.89
2019-05-13T08:40:06.240Z,42.58
2019-05-13T08:41:09.821Z,43.20
2019-05-13T08:42:14.967Z,43.43
2019-05-13T08:43:07.214Z,43.93
2019-05-13T08:44:06.191Z,43.85
2019-05-13T08:45:06.202Z,44.78
2019-05-13T08:46:06.187Z,44.48
2019-05-13T08:47:06.170Z,45.79
2019-05-13T08:48:06.153Z,46.20
2019-05-13T08:49:06.142Z,46.17
2019-05-13T08:50:06.130Z,44.05
2019-05-13T08:51:06.143Z,45.77
2019-05-13T08:52:06.113Z,47.89
2019-05-13T08:53:06.100Z,47.87
2019-05-13T08:54:06.094Z,44.71
2019-05-13T08:55:06.082Z,43.71
2019-05-13T08:56:06.071Z,45.70
2019-05-13T08:57:06.080Z,41.45
2019-05-13T08:58:06.064Z,41.87
2019-05-13T08:59:06.040Z,41.35
2019-05-13T09:00:06.067Z,40.76
2019-05-13T09:01:06.023Z,41.39
2019-05-13T09:02:06.013Z,45.30
2019-05-13T09:03:06.436Z,43.89
2019-05-13T09:04:05.991Z,41.47
2019-05-13T09:05:05.995Z,42.18
2019-05-13T09:06:05.981Z,41.87
2019-05-13T09:07:05.962Z,42.38
2019-05-13T09:08:05.958Z,42.86
2019-05-13T09:09:05.950Z,41.85
2019-05-13T09:10:05.935Z,40.01
2019-05-13T09:11:05.923Z,39.03
2019-05-13T09:12:05.919Z,40.34
2019-05-13T09:13:05.913Z,40.34
2019-05-13T09:14:05.892Z,38.32
2019-05-13T09:15:05.882Z,37.43
2019-05-13T09:16:05.892Z,39.35
2019-05-13T09:17:05.861Z,40.05
2019-05-13T09:18:05.852Z,40.34
2019-05-13T09:19:05.842Z,40.12
2019-05-13T09:20:05.845Z,38.79
2019-05-13T09:21:05.823Z,38.07
2019-05-13T09:22:05.833Z,37.65
2019-05-13T09:23:05.800Z,37.34
2019-05-13T09:24:20.623Z,37.85
2019-05-13T09:25:06.795Z,36.35
2019-05-13T09:26:05.771Z,36.47
2019-05-13T09:27:05.761Z,38.12
2019-05-13T09:28:05.752Z,39.23
2019-05-13T09:29:05.745Z,37.71
2019-05-13T09:30:05.742Z,37.88
2019-05-13T09:31:05.730Z,38.57
2019-05-13T09:32:05.711Z,38.05
2019-05-13T09:33:05.709Z,37.14
2019-05-13T09:34:05.691Z,35.85
2019-05-13T09:35:05.725Z,38.89
2019-05-13T09:36:05.678Z,37.18
2019-05-13T09:37:05.668Z,37.90
2019-05-13T09:38:05.657Z,36.59
2019-05-13T09:39:05.645Z,37.70
2019-05-13T09:40:05.639Z,36.32
2019-05-13T09:41:05.665Z,36.30
2019-05-13T09:42:05.615Z,39.03
2019-05-13T09:43:05.607Z,37.40
2019-05-13T09:44:05.602Z,37.18
2019-05-13T09:45:05.586Z,37.06
2019-05-13T09:46:05.580Z,36.52
2019-05-13T09:47:05.616Z,36.62
2019-05-13T09:48:05.561Z,35.21
2019-05-13T09:49:18.384Z,35.13
2019-05-13T09:50:06.540Z,33.94
2019-05-13T09:51:05.530Z,33.65
2019-05-13T09:52:05.524Z,36.77
2019-05-13T09:53:05.520Z,35.66
2019-05-13T09:54:05.499Z,35.26
2019-05-13T09:55:21.125Z,35.58
2019-05-13T09:56:06.481Z,34.97
2019-05-13T09:57:05.483Z,34.79
2019-05-13T09:58:05.461Z,35.92
2019-05-13T09:59:05.458Z,36.81
2019-05-13T10:00:05.489Z,34.88
2019-05-13T10:01:05.432Z,37.27
2019-05-13T10:02:05.425Z,37.96
2019-05-13T10:03:05.416Z,38.55
2019-05-13T10:04:05.403Z,35.39
2019-05-13T10:05:05.395Z,36.30
2019-05-13T10:06:05.508Z,34.17
2019-05-13T10:07:05.390Z,32.98
2019-05-13T10:08:05.367Z,33.91
2019-05-13T10:09:05.367Z,36.54
2019-05-13T10:10:05.361Z,34.02
2019-05-13T10:11:05.339Z,32.83
2019-05-13T10:12:05.349Z,33.33
2019-05-13T10:13:11.980Z,35.23
2019-05-13T10:14:06.313Z,34.99
2019-05-13T10:15:05.317Z,34.58
2019-05-13T10:16:05.291Z,33.99
2019-05-13T10:17:06.651Z,34.17
2019-05-13T10:18:05.278Z,34.98
2019-05-13T10:19:05.265Z,34.49
2019-05-13T10:20:05.265Z,33.39
2019-05-13T10:21:05.244Z,34.29
2019-05-13T10:22:05.244Z,34.59
2019-05-13T10:23:05.227Z,35.11
2019-05-13T10:24:05.226Z,35.71
2019-05-13T10:25:05.219Z,34.00
2019-05-13T10:26:05.226Z,35.39
2019-05-13T10:27:05.191Z,34.39
2019-05-13T10:28:05.190Z,34.88
2019-05-13T10:29:05.184Z,33.65
2019-05-13T10:30:05.174Z,32.75
2019-05-13T10:31:05.165Z,33.54
2019-05-13T10:32:05.160Z,33.75
2019-05-13T10:33:05.142Z,33.47
2019-05-13T10:34:05.140Z,33.37
2019-05-13T10:35:05.126Z,35.21
2019-05-13T10:36:05.137Z,35.83
2019-05-13T10:37:05.101Z,36.24
2019-05-13T10:38:05.108Z,35.95
2019-05-13T10:39:05.081Z,33.85
2019-05-13T10:40:05.088Z,35.66
2019-05-13T10:41:05.066Z,36.47
2019-05-13T10:42:05.064Z,34.83
2019-05-13T10:43:05.056Z,33.80
2019-05-13T10:44:05.038Z,34.49
2019-05-13T10:45:05.046Z,34.99
2019-05-13T10:46:05.023Z,34.49
2019-05-13T10:47:05.010Z,35.11
2019-05-13T10:48:10.248Z,35.80
2019-05-13T10:49:05.992Z,34.39
2019-05-13T10:50:05.004Z,36.08
2019-05-13T10:51:04.985Z,35.78
2019-05-13T10:52:04.977Z,33.36
2019-05-13T10:53:04.953Z,33.94
2019-05-13T10:54:04.947Z,30.52
2019-05-13T10:55:04.955Z,30.84
2019-05-13T10:56:04.943Z,31.76
2019-05-13T10:57:04.916Z,33.07
2019-05-13T10:58:04.911Z,34.36
2019-05-13T10:59:04.905Z,34.46
2019-05-13T11:00:04.907Z,33.04
2019-05-13T11:01:04.888Z,32.14
2019-05-13T11:02:04.887Z,32.62
2019-05-13T11:03:04.872Z,32.10
2019-05-13T11:04:04.859Z,32.60
2019-05-13T11:05:04.863Z,31.40
2019-05-13T11:06:04.841Z,33.20
2019-05-13T11:07:04.832Z,33.89
2019-05-13T11:08:04.834Z,34.28
2019-05-13T11:09:04.808Z,31.85
2019-05-13T11:10:04.802Z,32.14
2019-05-13T11:11:04.789Z,30.64
2019-05-13T11:12:04.784Z,29.57
2019-05-13T11:13:06.171Z,29.31
2019-05-13T11:14:11.370Z,32.23
2019-05-13T11:15:05.766Z,32.75
2019-05-13T11:16:04.745Z,32.15
2019-05-13T11:17:04.742Z,30.54
2019-05-13T11:18:04.726Z,30.64
2019-05-13T11:19:04.726Z,31.34
2019-05-13T11:20:04.741Z,33.14
2019-05-13T11:21:04.708Z,32.42
2019-05-13T11:22:04.692Z,30.51
2019-05-13T11:23:04.682Z,30.51
2019-05-13T11:24:04.674Z,32.12
2019-05-13T11:25:04.669Z,30.71
2019-05-13T11:26:04.672Z,31.80
2019-05-13T11:27:04.651Z,32.59
2019-05-13T11:28:04.646Z,32.09
2019-05-13T11:29:04.622Z,31.97
2019-05-13T11:30:06.183Z,31.05
2019-05-13T11:31:04.607Z,30.74
2019-05-13T11:32:04.608Z,30.54
2019-05-13T11:33:09.941Z,29.12
2019-05-13T11:34:05.587Z,31.51
2019-05-13T11:35:04.578Z,30.68
2019-05-13T11:36:04.569Z,29.57
2019-05-13T11:37:04.556Z,26.88
2019-05-13T11:38:04.546Z,26.98
2019-05-13T11:39:04.545Z,25.42
2019-05-13T11:40:04.522Z,26.14
2019-05-13T11:41:04.516Z,28.15
2019-05-13T11:42:04.502Z,26.96
2019-05-13T11:43:04.499Z,25.97
2019-05-13T11:44:12.536Z,28.38
2019-05-13T11:45:05.476Z,26.47
2019-05-13T11:46:04.469Z,25.37
2019-05-13T11:47:04.458Z,27.37
2019-05-13T11:48:04.446Z,27.08
2019-05-13T11:49:04.451Z,26.67
2019-05-13T11:50:04.438Z,25.77
2019-05-13T11:51:04.540Z,25.77
2019-05-13T11:52:04.412Z,26.17
2019-05-13T11:53:30.150Z,25.85
2019-05-13T11:54:05.385Z,26.75
2019-05-13T11:55:04.432Z,25.26
2019-05-13T11:56:04.388Z,27.27
2019-05-13T11:57:06.333Z,25.77
2019-05-13T11:58:05.378Z,25.88
2019-05-13T11:59:04.649Z,26.90
2019-05-13T12:00:04.367Z,26.78
2019-05-13T12:01:04.337Z,27.39
2019-05-13T12:02:04.939Z,26.60
2019-05-13T12:03:04.349Z,25.59
2019-05-13T12:04:04.294Z,25.99
2019-05-13T12:05:04.405Z,25.89
2019-05-13T12:06:04.289Z,26.70
2019-05-13T12:07:04.267Z,25.79
2019-05-13T12:08:04.253Z,25.70
2019-05-13T12:09:04.245Z,24.99
2019-05-13T12:10:04.236Z,26.89
2019-05-13T12:11:04.646Z,25.58
2019-05-13T12:12:04.221Z,25.27
2019-05-13T12:13:04.211Z,28.17
2019-05-13T12:14:04.200Z,28.56
2019-05-13T12:15:25.883Z,27.35
2019-05-13T12:16:05.191Z,28.23
2019-05-13T12:17:04.174Z,27.02
2019-05-13T12:18:04.162Z,27.52
2019-05-13T12:19:04.154Z,26.71
2019-05-13T12:20:04.142Z,26.31
2019-05-13T12:21:04.444Z,27.52
2019-05-13T12:22:04.132Z,28.52
2019-05-13T12:23:04.126Z,28.12
2019-05-13T12:24:10.348Z,28.31
2019-05-13T12:25:05.090Z,29.10
2019-05-13T12:26:05.167Z,28.09
2019-05-13T12:27:04.099Z,26.70
2019-05-13T12:28:04.060Z,27.68
2019-05-13T12:29:04.054Z,26.29
2019-05-13T12:30:04.042Z,27.32
2019-05-13T12:31:04.055Z,27.53
2019-05-13T12:32:04.026Z,27.23
2019-05-13T12:33:04.028Z,27.45
2019-05-13T12:34:04.006Z,27.95
2019-05-13T12:35:03.998Z,29.05
2019-05-13T12:36:04.000Z,30.55
2019-05-13T12:37:04.621Z,30.44
2019-05-13T12:38:03.976Z,29.32
2019-05-13T12:39:03.973Z,26.12
2019-05-13T12:40:03.997Z,26.62
2019-05-13T12:41:05.456Z,27.92
2019-05-13T12:42:03.945Z,26.52
2019-05-13T12:43:03.931Z,26.62
2019-05-13T12:44:03.920Z,26.51
2019-05-13T12:45:09.653Z,26.21
2019-05-13T12:46:04.894Z,28.50
2019-05-13T12:47:03.899Z,25.59
2019-05-13T12:48:03.876Z,25.60
2019-05-13T12:49:04.207Z,26.10
2019-05-13T12:50:03.860Z,27.31
2019-05-13T12:51:03.840Z,26.81
2019-05-13T12:52:04.774Z,26.10